Time;durP1;ratioP1;P1;durP2;ratioP2;P2;SDS_P1;SDS_P2;PMS_P1;PMS_P2;Temp;Humidity;BMP_temperature;BMP_pressure;BME280_temperature;BME280_humidity;BME280_pressure;Samples;Min_cycle;Max_cycle;Signal;HPM_P1;HPM_P2
2021/10/16 00:02:07;;;;;;;;;;;;;;;6.20;76.02;96840.31;5073810;28;19958;-76
2021/10/16 00:04:33;;;;;;;;;;;;;;;6.16;75.68;96837.25;5074163;28;19962;-76
2021/10/16 00:06:59;;;;;;;;;;;;;;;6.16;75.68;96841.66;5074198;28;20281;-75
2021/10/16 00:09:25;;;;;;;;;;;;;;;6.14;75.67;96841.84;5074484;28;19959;-75
2021/10/16 00:11:51;;;;;;;;;;;;;;;6.13;75.97;96848.00;5072735;28;19950;-75
2021/10/16 00:14:17;;;;;;;;;;;;;;;6.09;76.07;96850.19;5073995;28;19963;-75
2021/10/16 00:16:43;;;;;;;;;;;;;;;6.08;75.96;96851.16;5073820;28;20463;-75
2021/10/16 00:19:08;;;;;;;;;;;;;;;6.07;75.70;96846.94;5073670;28;20365;-76
2021/10/16 00:21:36;;;;;;;;;;;;;;;6.06;75.97;96844.53;5073467;28;19959;-76
2021/10/16 00:24:02;;;;;;;;;;;;;;;6.03;76.13;96853.50;5072484;28;19957;-75
2021/10/16 00:26:28;;;;;;;;;;;;;;;6.01;75.98;96855.47;5073596;28;20342;-75
2021/10/16 00:28:54;;;;;;;;;;;;;;;6.02;75.93;96856.28;5073593;28;19965;-76
2021/10/16 00:31:20;;;;;;;;;;;;;;;6.01;76.33;96855.47;5064801;28;19960;-76
2021/10/16 00:33:46;;;;;;;;;;;;;;;6.02;76.60;96851.06;5073572;28;20012;-76
2021/10/16 00:36:11;;;;;;;;;;;;;;;6.00;76.34;96853.84;5073114;28;20391;-75
2021/10/16 00:38:37;;;;;;;;;;;;;;;6.00;76.57;96848.63;5073810;28;19973;-75
2021/10/16 00:41:03;;;;;;;;;;;;;;;6.00;76.79;96850.44;5073379;28;19990;-76
2021/10/16 00:43:29;;;;;;;;;;;;;;;6.01;76.76;96855.47;5073538;28;19984;-76
2021/10/16 00:45:55;;;;;;;;;;;;;;;6.01;77.11;96852.88;5073463;28;20421;-76
2021/10/16 00:48:21;;;;;;;;;;;;;;;6.03;77.22;96842.28;5073493;28;19958;-76
2021/10/16 00:50:47;;;;;;;;;;;;;;;6.04;78.04;96846.50;5073343;28;19959;-76
2021/10/16 00:53:14;;;;;;;;;;;;;;;6.03;77.84;96850.91;5073436;28;19974;-76
2021/10/16 00:55:40;;;;;;;;;;;;;;;6.06;78.24;96842.72;5073919;28;19970;-76
2021/10/16 00:58:06;;;;;;;;;;;;;;;6.09;77.93;96846.78;5072116;28;19968;-76
2021/10/16 01:00:32;;;;;;;;;;;;;;;6.12;78.29;96850.81;5073440;28;19959;-76
2021/10/16 01:03:00;;;;;;;;;;;;;;;6.15;78.59;96840.03;5073158;28;19995;-76
2021/10/16 01:05:26;;;;;;;;;;;;;;;6.19;78.56;96841.28;5073366;28;20312;-76
2021/10/16 01:07:52;;;;;;;;;;;;;;;6.22;78.87;96827.91;5073125;28;19952;-76
2021/10/16 01:10:17;;;;;;;;;;;;;;;6.25;78.76;96828.34;5073283;28;19959;-76
2021/10/16 01:12:43;;;;;;;;;;;;;;;6.28;78.88;96819.38;5073460;28;20009;-76
2021/10/16 01:15:11;;;;;;;;;;;;;;;6.32;79.62;96832.84;5073448;28;19947;-76
2021/10/16 01:17:37;;;;;;;;;;;;;;;6.35;80.06;96822.06;5072633;28;19972;-76
2021/10/16 01:20:06;;;;;;;;;;;;;;;6.37;80.09;96827.91;5060658;28;19952;-76
2021/10/16 01:22:33;;;;;;;;;;;;;;;6.39;80.05;96826.72;5073222;28;19964;-75
2021/10/16 01:25:00;;;;;;;;;;;;;;;6.41;80.34;96818.75;5073090;28;20410;-75
2021/10/16 01:27:26;;;;;;;;;;;;;;;6.44;80.02;96816.56;5073106;28;19944;-76
2021/10/16 01:29:52;;;;;;;;;;;;;;;6.47;80.14;96821.41;5073117;28;20027;-76
2021/10/16 01:32:18;;;;;;;;;;;;;;;6.48;80.30;96817.00;5073034;28;19955;-76
2021/10/16 01:34:44;;;;;;;;;;;;;;;6.50;80.15;96807.22;5073094;28;20469;-75
2021/10/16 01:37:10;;;;;;;;;;;;;;;6.53;80.30;96808.63;5072975;28;20367;-75
2021/10/16 01:39:36;;;;;;;;;;;;;;;6.56;80.50;96813.50;5072810;28;19954;-76
2021/10/16 01:42:02;;;;;;;;;;;;;;;6.56;80.59;96803.06;5072982;28;19962;-76
2021/10/16 01:44:28;;;;;;;;;;;;;;;6.58;80.46;96804.50;5073057;28;19955;-76
2021/10/16 01:46:54;;;;;;;;;;;;;;;6.61;80.92;96800.72;5074356;28;19956;-76
2021/10/16 01:49:20;;;;;;;;;;;;;;;6.62;80.80;96800.53;5076479;28;20285;-76
2021/10/16 01:51:47;;;;;;;;;;;;;;;6.65;81.14;96797.56;5076597;28;19961;-76
2021/10/16 01:54:13;;;;;;;;;;;;;;;6.67;81.07;96798.19;5076647;28;19977;-76
2021/10/16 01:56:39;;;;;;;;;;;;;;;6.70;81.28;96792.63;5076530;28;19958;-76
2021/10/16 01:59:15;;;;;;;;;;;;;;;6.74;81.64;96802.66;5076445;28;19966;-76
2021/10/16 02:01:42;;;;;;;;;;;;;;;6.76;81.69;96798.06;5064809;28;19963;-75
2021/10/16 02:04:08;;;;;;;;;;;;;;;6.79;81.90;96795.09;5076129;28;19976;-75
2021/10/16 02:06:34;;;;;;;;;;;;;;;6.80;82.08;96792.28;5076484;28;20432;-76
2021/10/16 02:08:59;;;;;;;;;;;;;;;6.82;81.44;96794.72;5076460;28;20002;-75
2021/10/16 02:11:25;;;;;;;;;;;;;;;6.84;81.79;96795.34;5076205;28;19946;-76
2021/10/16 02:13:51;;;;;;;;;;;;;;;6.85;81.46;96787.34;5076220;28;19995;-75
2021/10/16 02:16:17;;;;;;;;;;;;;;;6.87;81.82;96792.38;5076172;28;20004;-76
2021/10/16 02:18:43;;;;;;;;;;;;;;;6.88;81.67;96793.97;5075755;28;20440;-75
2021/10/16 02:21:09;;;;;;;;;;;;;;;6.89;81.46;96798.22;5076367;28;19956;-75
2021/10/16 02:23:35;;;;;;;;;;;;;;;6.89;81.78;96793.81;5076174;28;19964;-75
2021/10/16 02:26:01;;;;;;;;;;;;;;;6.90;82.09;96795.41;5075880;28;20372;-75
2021/10/16 02:28:27;;;;;;;;;;;;;;;6.93;82.34;96786.44;5075827;28;19955;-75
2021/10/16 02:30:52;;;;;;;;;;;;;;;6.94;82.35;96793.25;5075708;28;20320;-75
2021/10/16 02:33:18;;;;;;;;;;;;;;;6.95;82.19;96784.44;5075799;28;20454;-75
2021/10/16 02:35:44;;;;;;;;;;;;;;;6.97;81.91;96782.47;5075621;28;19954;-75
2021/10/16 02:38:10;;;;;;;;;;;;;;;6.99;81.83;96785.69;5075432;28;20049;-75
2021/10/16 02:40:36;;;;;;;;;;;;;;;7.02;81.56;96781.88;5075697;28;20020;-75
2021/10/16 02:43:03;;;;;;;;;;;;;;;7.03;81.75;96779.06;5075678;28;20387;-75
2021/10/16 02:45:29;;;;;;;;;;;;;;;7.05;81.89;96789.31;5075380;28;20304;-76
2021/10/16 02:47:56;;;;;;;;;;;;;;;7.07;81.90;96788.13;5075413;28;19964;-75
2021/10/16 02:50:22;;;;;;;;;;;;;;;7.10;81.78;96789.59;5075382;28;20016;-76
2021/10/16 02:52:48;;;;;;;;;;;;;;;7.13;81.91;96798.84;5075662;28;20021;-76
2021/10/16 02:55:16;;;;;;;;;;;;;;;7.13;82.14;96802.25;5075340;28;19972;-75
2021/10/16 02:57:42;;;;;;;;;;;;;;;7.13;82.32;96798.84;5074329;28;19964;-75
2021/10/16 03:00:08;;;;;;;;;;;;;;;7.10;80.90;96794.81;5074961;28;20353;-76
2021/10/16 03:02:34;;;;;;;;;;;;;;;7.09;80.14;96806.22;5075330;28;19962;-75
2021/10/16 03:05:01;;;;;;;;;;;;;;;7.05;79.62;96802.38;5074979;28;19956;-75
2021/10/16 03:07:27;;;;;;;;;;;;;;;7.01;79.18;96801.91;5075249;28;19953;-76
2021/10/16 03:09:53;;;;;;;;;;;;;;;6.95;78.97;96812.28;5074892;28;20007;-77
2021/10/16 03:12:18;;;;;;;;;;;;;;;6.89;79.76;96814.66;5075108;28;19971;-76
2021/10/16 03:14:44;;;;;;;;;;;;;;;6.87;80.03;96814.03;5074973;28;20016;-76
2021/10/16 03:17:10;;;;;;;;;;;;;;;6.86;79.55;96812.41;5074779;28;19952;-76
2021/10/16 03:19:36;;;;;;;;;;;;;;;6.86;79.63;96815.00;5074998;28;20004;-76
2021/10/16 03:22:02;;;;;;;;;;;;;;;6.84;79.38;96806.56;5073610;28;20410;-76
2021/10/16 03:24:28;;;;;;;;;;;;;;;6.85;79.23;96813.41;5074568;28;19963;-76
2021/10/16 03:26:54;;;;;;;;;;;;;;;6.83;79.04;96812.00;5074773;28;19954;-76
2021/10/16 03:29:20;;;;;;;;;;;;;;;6.85;79.41;96815.22;5073394;28;19953;-76
2021/10/16 03:31:46;;;;;;;;;;;;;;;6.86;79.93;96817.63;5074644;28;19956;-76
2021/10/16 03:34:12;;;;;;;;;;;;;;;6.86;79.71;96816.81;5074555;28;19952;-75
2021/10/16 03:36:38;;;;;;;;;;;;;;;6.87;79.85;96808.81;5074299;28;20421;-75
2021/10/16 03:39:04;;;;;;;;;;;;;;;6.87;79.65;96813.25;5074262;28;19971;-76
2021/10/16 03:41:30;;;;;;;;;;;;;;;6.87;79.48;96810.63;5074388;28;19953;-75
2021/10/16 03:43:56;;;;;;;;;;;;;;;6.86;79.44;96812.41;5074177;28;19970;-76
2021/10/16 03:46:22;;;;;;;;;;;;;;;6.86;79.36;96801.97;5074439;28;19956;-75
2021/10/16 03:48:48;;;;;;;;;;;;;;;6.88;79.48;96807.00;5074349;28;19958;-76
2021/10/16 03:51:14;;;;;;;;;;;;;;;6.87;79.53;96803.59;5074452;28;19950;-75
2021/10/16 03:53:40;;;;;;;;;;;;;;;6.89;79.65;96814.66;5074519;28;19973;-76
2021/10/16 03:56:06;;;;;;;;;;;;;;;6.91;79.26;96804.06;5074057;28;19971;-75
2021/10/16 03:58:32;;;;;;;;;;;;;;;6.93;79.39;96807.28;5074113;28;19972;-75
2021/10/16 04:01:01;;;;;;;;;;;;;;;6.95;79.85;96807.06;5073950;28;19951;-75
2021/10/16 04:03:27;;;;;;;;;;;;;;;6.93;80.55;96802.06;5073808;28;19981;-76
2021/10/16 04:05:54;;;;;;;;;;;;;;;6.93;80.84;96802.06;5073967;28;19951;-75
2021/10/16 04:08:20;;;;;;;;;;;;;;;6.93;80.61;96799.47;5073926;28;19957;-76
2021/10/16 04:10:45;;;;;;;;;;;;;;;6.94;81.08;96800.25;5073582;28;20003;-76
2021/10/16 04:13:11;;;;;;;;;;;;;;;6.95;81.19;96801.88;5073733;28;20440;-76
2021/10/16 04:15:38;;;;;;;;;;;;;;;6.95;81.31;96804.47;5073975;28;19964;-76
2021/10/16 04:18:04;;;;;;;;;;;;;;;6.95;81.90;96802.69;5073609;28;20329;-75
2021/10/16 04:20:30;;;;;;;;;;;;;;;6.96;82.34;96806.09;5074005;28;19959;-75
2021/10/16 04:22:56;;;;;;;;;;;;;;;6.97;82.90;96798.09;5073605;28;20003;-76
2021/10/16 04:25:22;;;;;;;;;;;;;;;6.98;83.26;96798.91;5073597;28;19958;-75
2021/10/16 04:27:48;;;;;;;;;;;;;;;6.99;83.59;96795.28;5074203;28;20395;-75
2021/10/16 04:30:14;;;;;;;;;;;;;;;7.00;83.22;96799.53;5073484;28;19960;-76
2021/10/16 04:32:40;;;;;;;;;;;;;;;7.01;83.37;96796.69;5073725;28;20049;-76
2021/10/16 04:35:07;;;;;;;;;;;;;;;7.03;83.31;96801.75;5073873;28;19952;-75
2021/10/16 04:37:34;;;;;;;;;;;;;;;7.01;83.83;96801.91;5073395;28;20307;-75
2021/10/16 04:40:08;;;;;;;;;;;;;;;7.00;83.62;96797.72;5073841;28;19957;-75
2021/10/16 04:42:33;;;;;;;;;;;;;;;6.99;84.35;96809.16;5074025;28;19964;-75
2021/10/16 04:45:00;;;;;;;;;;;;;;;6.96;84.08;96800.88;5073423;28;20040;-76
2021/10/16 04:47:26;;;;;;;;;;;;;;;6.93;84.73;96807.28;5073492;28;19953;-76
2021/10/16 04:49:52;;;;;;;;;;;;;;;6.87;84.39;96802.81;5073974;28;20000;-77
2021/10/16 04:52:18;;;;;;;;;;;;;;;6.86;85.05;96806.38;5073505;28;20324;-78
2021/10/16 04:54:43;;;;;;;;;;;;;;;6.86;84.83;96803.78;5074039;28;19966;-75
2021/10/16 04:57:09;;;;;;;;;;;;;;;6.88;84.88;96807.00;5073498;28;19956;-75
2021/10/16 04:59:35;;;;;;;;;;;;;;;6.91;84.80;96809.28;5073623;28;20345;-75
2021/10/16 05:02:02;;;;;;;;;;;;;;;6.90;85.01;96810.25;5073619;28;19954;-76
2021/10/16 05:04:28;;;;;;;;;;;;;;;6.92;85.05;96810.88;5073357;28;19963;-77
2021/10/16 05:06:54;;;;;;;;;;;;;;;6.91;84.78;96807.47;5073091;28;19952;-75
2021/10/16 05:09:20;;;;;;;;;;;;;;;6.92;84.53;96813.47;5072084;28;20418;-75
2021/10/16 05:11:46;;;;;;;;;;;;;;;6.92;84.61;96803.03;5073188;28;19954;-76
2021/10/16 05:14:12;;;;;;;;;;;;;;;6.95;84.68;96805.31;5073444;28;20401;-75
2021/10/16 05:16:38;;;;;;;;;;;;;;;6.98;84.66;96798.91;5073260;28;19953;-75
2021/10/16 05:19:04;;;;;;;;;;;;;;;7.00;84.58;96802.94;5073050;28;19964;-76
2021/10/16 05:21:30;;;;;;;;;;;;;;;7.01;84.95;96804.53;5073805;28;19966;-75
2021/10/16 05:23:56;;;;;;;;;;;;;;;7.03;84.83;96806.97;5076908;28;19953;-76
2021/10/16 05:26:22;;;;;;;;;;;;;;;7.04;84.61;96805.97;5077404;28;19958;-75
2021/10/16 05:28:48;;;;;;;;;;;;;;;7.05;84.61;96811.00;5076902;28;19948;-75
2021/10/16 05:31:14;;;;;;;;;;;;;;;7.06;85.11;96804.00;5077111;28;19951;-75
2021/10/16 05:33:40;;;;;;;;;;;;;;;7.07;85.47;96814.22;5076799;28;19962;-76
2021/10/16 05:36:05;;;;;;;;;;;;;;;7.09;85.54;96809.63;5077138;28;19961;-75
2021/10/16 05:38:31;;;;;;;;;;;;;;;7.10;85.54;96823.50;5076553;28;21045;-75
2021/10/16 05:40:57;;;;;;;;;;;;;;;7.10;85.88;96815.66;5075591;28;20404;-75
2021/10/16 05:43:23;;;;;;;;;;;;;;;7.06;85.63;96820.44;5076719;28;19955;-76
2021/10/16 05:45:49;;;;;;;;;;;;;;;7.06;86.35;96824.84;5076878;28;20332;-75
2021/10/16 05:48:15;;;;;;;;;;;;;;;7.04;85.81;96821.63;5076758;28;19985;-76
2021/10/16 05:50:41;;;;;;;;;;;;;;;6.99;84.78;96832.63;5076816;28;19963;-76
2021/10/16 05:53:07;;;;;;;;;;;;;;;6.93;85.40;96828.13;5076672;28;20438;-76
2021/10/16 05:55:33;;;;;;;;;;;;;;;6.87;85.54;96824.47;5076716;28;19955;-75
2021/10/16 05:57:59;;;;;;;;;;;;;;;6.81;85.58;96829.63;5076163;28;19964;-75
2021/10/16 06:00:25;;;;;;;;;;;;;;;6.80;86.72;96827.97;5076743;28;20044;-75
2021/10/16 06:02:51;;;;;;;;;;;;;;;6.79;86.15;96829.78;5076296;28;19956;-76
2021/10/16 06:05:18;;;;;;;;;;;;;;;6.80;86.41;96834.00;5076145;28;19978;-75
2021/10/16 06:07:44;;;;;;;;;;;;;;;6.82;86.69;96828.59;5076036;28;20436;-75
2021/10/16 06:10:10;;;;;;;;;;;;;;;6.87;86.53;96839.31;5076586;28;19959;-75
2021/10/16 06:12:36;;;;;;;;;;;;;;;6.87;85.95;96841.91;5076094;28;19963;-76
2021/10/16 06:15:02;;;;;;;;;;;;;;;6.87;86.30;96840.09;5075969;28;19956;-75
2021/10/16 06:17:28;;;;;;;;;;;;;;;6.92;86.25;96834.34;5076014;28;20060;-76
2021/10/16 06:19:54;;;;;;;;;;;;;;;6.92;85.54;96831.72;5075803;28;19972;-75
2021/10/16 06:22:20;;;;;;;;;;;;;;;6.91;85.93;96837.94;5076504;28;19962;-75
2021/10/16 06:24:46;;;;;;;;;;;;;;;6.92;85.85;96836.94;5076202;28;19967;-76
2021/10/16 06:27:12;;;;;;;;;;;;;;;6.97;85.69;96839.81;5065714;28;19961;-75
2021/10/16 06:29:37;;;;;;;;;;;;;;;7.02;85.58;96844.47;5076053;28;19952;-75
2021/10/16 06:32:03;;;;;;;;;;;;;;;7.06;85.36;96840.50;5075261;28;20379;-76
2021/10/16 06:34:29;;;;;;;;;;;;;;;7.09;85.34;96851.34;5075620;28;19962;-78
2021/10/16 06:36:55;;;;;;;;;;;;;;;7.09;85.36;96843.53;5075732;28;20042;-75
2021/10/16 06:39:21;;;;;;;;;;;;;;;7.07;85.74;96845.50;5075980;28;20012;-75
2021/10/16 06:41:47;;;;;;;;;;;;;;;7.07;86.01;96850.72;5075719;28;19953;-75
2021/10/16 06:44:13;;;;;;;;;;;;;;;7.09;86.33;96850.56;5075877;28;20004;-75
2021/10/16 06:46:39;;;;;;;;;;;;;;;7.10;85.91;96849.56;5075523;28;19964;-76
2021/10/16 06:49:04;;;;;;;;;;;;;;;7.06;86.14;96850.94;5075397;28;20037;-76
2021/10/16 06:51:30;;;;;;;;;;;;;;;7.02;86.58;96855.72;5075575;28;20002;-76
2021/10/16 06:53:56;;;;;;;;;;;;;;;7.01;86.26;96859.28;5075404;28;20023;-75
2021/10/16 06:56:22;;;;;;;;;;;;;;;7.03;86.66;96859.13;5075271;28;19956;-76
2021/10/16 06:58:48;;;;;;;;;;;;;;;7.05;86.81;96862.34;5075320;28;20071;-75
2021/10/16 07:01:14;;;;;;;;;;;;;;;7.05;86.97;96859.72;5073972;28;19969;-76
2021/10/16 07:03:40;;;;;;;;;;;;;;;7.05;86.81;96865.75;5075524;28;20313;-76
2021/10/16 07:06:08;;;;;;;;;;;;;;;7.10;86.81;96875.66;5075273;28;19958;-75
2021/10/16 07:08:34;;;;;;;;;;;;;;;7.11;86.66;96872.03;5074963;28;19957;-75
2021/10/16 07:11:00;;;;;;;;;;;;;;;7.11;86.77;96875.44;5075118;28;20055;-75
2021/10/16 07:13:26;;;;;;;;;;;;;;;7.14;86.28;96879.50;5074921;28;19981;-75
2021/10/16 07:15:52;;;;;;;;;;;;;;;7.18;86.06;96872.09;5074902;28;19961;-75
2021/10/16 07:18:18;;;;;;;;;;;;;;;7.21;86.57;96882.97;5074672;28;19978;-76
2021/10/16 07:20:44;;;;;;;;;;;;;;;7.27;86.78;96881.44;5074874;28;20469;-76
2021/10/16 07:23:10;;;;;;;;;;;;;;;7.28;86.56;96888.25;5074189;28;19959;-75
2021/10/16 07:25:35;;;;;;;;;;;;;;;7.30;86.29;96887.06;5073366;28;19983;-76
2021/10/16 07:28:01;;;;;;;;;;;;;;;7.34;86.18;96879.69;5074907;28;20419;-76
2021/10/16 07:30:27;;;;;;;;;;;;;;;7.38;86.04;96890.56;5073319;28;19964;-76
2021/10/16 07:32:53;;;;;;;;;;;;;;;7.41;86.07;96891.00;5074939;28;19961;-75
2021/10/16 07:35:19;;;;;;;;;;;;;;;7.44;86.20;96890.63;5074429;28;20056;-75
2021/10/16 07:37:45;;;;;;;;;;;;;;;7.49;85.92;96892.66;5074613;28;19958;-75
2021/10/16 07:40:11;;;;;;;;;;;;;;;7.53;85.96;96899.94;5074288;28;19967;-76
2021/10/16 07:42:37;;;;;;;;;;;;;;;7.57;86.04;96902.19;5074702;28;19962;-76
2021/10/16 07:45:03;;;;;;;;;;;;;;;7.61;86.07;96906.03;5073806;28;20403;-75
2021/10/16 07:47:29;;;;;;;;;;;;;;;7.62;85.81;96905.03;5074774;28;19959;-75
2021/10/16 07:49:55;;;;;;;;;;;;;;;7.64;86.21;96900.41;5074176;28;19952;-75
2021/10/16 07:52:22;;;;;;;;;;;;;;;7.65;86.00;96905.47;5073817;28;19980;-75
2021/10/16 07:54:48;;;;;;;;;;;;;;;7.68;85.92;96901.66;5074207;28;19962;-76
2021/10/16 07:57:14;;;;;;;;;;;;;;;7.72;85.90;96902.91;5074086;28;20318;-75
2021/10/16 07:59:41;;;;;;;;;;;;;;;7.76;86.88;96903.34;5073917;28;19972;-75
2021/10/16 08:02:07;;;;;;;;;;;;;;;7.78;86.51;96902.16;5074057;28;19944;-76
2021/10/16 08:04:33;;;;;;;;;;;;;;;7.82;86.32;96910.44;5074414;28;20419;-75
2021/10/16 08:06:59;;;;;;;;;;;;;;;7.85;86.50;96900.41;5073854;28;19959;-75
2021/10/16 08:09:24;;;;;;;;;;;;;;;7.87;85.82;96905.44;5074108;28;20307;-75
2021/10/16 08:11:50;;;;;;;;;;;;;;;7.89;85.70;96906.84;5073828;28;19957;-75
2021/10/16 08:14:16;;;;;;;;;;;;;;;7.92;85.88;96908.31;5073864;28;19959;-75
2021/10/16 08:16:42;;;;;;;;;;;;;;;7.91;85.73;96911.91;5074363;28;20364;-75
2021/10/16 08:19:08;;;;;;;;;;;;;;;7.89;86.19;96919.09;5073498;28;20388;-76
2021/10/16 08:21:35;;;;;;;;;;;;;;;7.86;86.70;96911.66;5072738;28;19970;-75
2021/10/16 08:24:02;;;;;;;;;;;;;;;7.85;86.78;96910.88;5072575;28;19946;-75
2021/10/16 08:26:28;;;;;;;;;;;;;;;7.83;87.63;96907.63;5073683;28;19955;-75
2021/10/16 08:28:54;;;;;;;;;;;;;;;7.84;86.95;96917.06;5073581;28;19952;-75
2021/10/16 08:31:20;;;;;;;;;;;;;;;7.86;87.28;96917.69;5073391;28;19986;-75
2021/10/16 08:33:46;;;;;;;;;;;;;;;7.86;88.01;96922.13;5073883;28;19955;-76
2021/10/16 08:36:13;;;;;;;;;;;;;;;7.87;87.46;96919.31;5073640;28;19951;-75
2021/10/16 08:38:39;;;;;;;;;;;;;;;7.88;87.83;96917.50;5073976;28;19948;-75
2021/10/16 08:41:08;;;;;;;;;;;;;;;7.93;86.77;96922.97;5073584;28;19959;-76
2021/10/16 08:43:34;;;;;;;;;;;;;;;7.95;87.37;96922.78;5073537;28;20338;-75
2021/10/16 08:46:02;;;;;;;;;;;;;;;7.95;87.45;96922.78;5073779;28;19960;-75
2021/10/16 08:48:28;;;;;;;;;;;;;;;7.95;86.99;96923.59;5073471;28;19959;-75
2021/10/16 08:50:55;;;;;;;;;;;;;;;7.96;87.50;96930.44;5073495;28;19958;-75
2021/10/16 08:53:21;;;;;;;;;;;;;;;7.97;88.13;96923.41;5073219;28;20348;-75
2021/10/16 08:55:50;;;;;;;;;;;;;;;8.05;87.94;96931.09;5074907;28;19965;-76
2021/10/16 08:58:16;;;;;;;;;;;;;;;8.13;88.64;96930.97;5077645;28;20395;-75
2021/10/16 09:00:54;;;;;;;;;;;;;;;8.14;87.81;96927.34;5077576;28;19972;-78
2021/10/16 09:03:54;;;;;;;;;;;;;;;8.20;87.23;96929.19;5066502;28;19954;-75
2021/10/16 09:06:27;;;;;;;;;;;;;;;8.29;87.00;96935.06;5070473;28;20317;-75
2021/10/16 09:08:57;;;;;;;;;;;;;;;8.37;86.54;96934.13;5077991;28;19956;-75
2021/10/16 09:11:23;;;;;;;;;;;;;;;8.42;87.29;96934.38;5077231;28;19954;-75
2021/10/16 09:13:57;;;;;;;;;;;;;;;8.38;87.38;96930.50;5077479;28;20434;-75
2021/10/16 09:16:24;;;;;;;;;;;;;;;8.43;86.85;96930.78;5077519;28;19954;-75
2021/10/16 09:19:10;;;;;;;;;;;;;;;8.48;85.36;96931.00;5076963;28;19975;-76
2021/10/16 09:21:38;;;;;;;;;;;;;;;8.55;85.05;96929.25;5076872;28;19964;-75
2021/10/16 09:24:14;;;;;;;;;;;;;;;8.65;85.33;96928.88;5077090;28;19950;-76
2021/10/16 09:26:41;;;;;;;;;;;;;;;8.77;84.94;96926.53;5063955;28;20016;-75
2021/10/16 09:29:08;;;;;;;;;;;;;;;8.87;85.21;96929.59;5075933;28;19953;-76
2021/10/16 09:31:42;;;;;;;;;;;;;;;8.97;84.74;96932.66;5076788;28;19994;-75
2021/10/16 09:34:09;;;;;;;;;;;;;;;8.99;83.82;96932.44;5076786;28;19956;-75
2021/10/16 09:36:36;;;;;;;;;;;;;;;8.98;84.18;96931.66;5076838;28;19963;-75
2021/10/16 09:39:04;;;;;;;;;;;;;;;8.99;84.36;96929.81;5076639;28;19975;-75
2021/10/16 09:41:37;;;;;;;;;;;;;;;9.00;84.08;96929.63;5076757;28;19968;-75
2021/10/16 09:44:05;;;;;;;;;;;;;;;9.10;83.60;96937.94;5064598;28;19953;-75
2021/10/16 09:46:31;;;;;;;;;;;;;;;9.10;84.64;96931.91;5076663;28;19962;-75
2021/10/16 09:49:07;;;;;;;;;;;;;;;9.14;84.52;96930.50;5076490;28;19949;-75
2021/10/16 09:51:47;;;;;;;;;;;;;;;9.27;84.31;96927.91;5076699;28;19954;-75
2021/10/16 09:54:13;;;;;;;;;;;;;;;9.44;84.46;96932.78;5076295;28;19984;-76
2021/10/16 09:56:40;;;;;;;;;;;;;;;9.57;83.53;96932.81;5076448;28;19962;-75
2021/10/16 09:59:06;;;;;;;;;;;;;;;9.68;82.98;96924.38;5076390;28;19970;-75
2021/10/16 10:01:33;;;;;;;;;;;;;;;9.80;82.30;96929.81;5076783;28;19953;-75
2021/10/16 10:03:59;;;;;;;;;;;;;;;9.86;81.90;96923.78;5076062;28;20435;-76
2021/10/16 10:06:26;;;;;;;;;;;;;;;9.88;82.26;96928.81;5067011;28;19966;-75
2021/10/16 10:08:52;;;;;;;;;;;;;;;9.93;82.11;96924.59;5075436;28;19950;-76
2021/10/16 10:11:18;;;;;;;;;;;;;;;10.00;81.96;96927.22;5076196;28;19953;-75
2021/10/16 10:13:44;;;;;;;;;;;;;;;10.07;82.24;96919.34;5076454;28;20041;-75
2021/10/16 10:16:10;;;;;;;;;;;;;;;10.13;81.79;96923.78;5076269;28;19963;-75
2021/10/16 10:21:22;;;;;;;;;;;;;;;10.25;82.26;96930.00;5075846;28;19956;-75
2021/10/16 10:23:55;;;;;;;;;;;;;;;10.33;81.56;96918.53;5075820;28;19964;-76
2021/10/16 10:26:22;;;;;;;;;;;;;;;10.40;82.09;96921.97;5075868;28;19958;-75
2021/10/16 10:28:57;;;;;;;;;;;;;;;10.44;81.79;96919.75;5075970;28;19956;-75
2021/10/16 10:31:42;;;;;;;;;;;;;;;10.45;81.38;96919.50;5075859;28;19973;-75
2021/10/16 10:34:11;;;;;;;;;;;;;;;10.49;81.61;96912.84;5068905;28;19950;-75
2021/10/16 10:37:03;;;;;;;;;;;;;;;10.55;81.65;96911.22;5075770;28;19963;-75
2021/10/16 10:39:35;;;;;;;;;;;;;;;10.61;81.40;96909.59;5074760;28;19976;-75
2021/10/16 10:42:02;;;;;;;;;;;;;;;10.66;81.26;96915.03;5067306;28;19978;-76
2021/10/16 10:44:37;;;;;;;;;;;;;;;10.72;80.73;96909.75;5065912;28;19955;-76
2021/10/16 10:47:22;;;;;;;;;;;;;;;10.75;80.75;96901.50;5076228;28;19945;-75
2021/10/16 10:49:48;;;;;;;;;;;;;;;10.74;80.99;96899.84;5075539;28;19962;-75
2021/10/16 10:52:15;;;;;;;;;;;;;;;10.78;80.24;96902.88;5075346;28;21049;-75
2021/10/16 10:57:42;;;;;;;;;;;;;;;10.94;80.36;96899.78;5074128;28;19958;-75
2021/10/16 11:00:10;;;;;;;;;;;;;;;11.01;78.72;96905.00;5075041;28;19971;-75
2021/10/16 11:02:36;;;;;;;;;;;;;;;10.94;77.64;96899.78;5075065;28;19954;-76
2021/10/16 11:05:03;;;;;;;;;;;;;;;11.03;78.33;96896.94;5075287;28;20383;-75
2021/10/16 11:07:37;;;;;;;;;;;;;;;11.10;78.35;96890.63;5075074;28;19959;-75
2021/10/16 11:10:03;;;;;;;;;;;;;;;11.22;78.43;96884.72;5075393;28;20320;-75
2021/10/16 11:12:34;;;;;;;;;;;;;;;11.29;78.13;96886.28;5075389;28;19954;-75
2021/10/16 11:15:00;;;;;;;;;;;;;;;11.36;78.60;96886.25;5075074;28;19945;-75
2021/10/16 11:17:34;;;;;;;;;;;;;;;11.40;78.77;96881.38;5074851;28;19967;-76
2021/10/16 11:19:59;;;;;;;;;;;;;;;11.42;78.53;96871.44;5073759;28;19974;-75
2021/10/16 11:22:46;;;;;;;;;;;;;;;11.38;75.86;96879.78;5057118;28;19989;-75
2021/10/16 11:25:22;;;;;;;;;;;;;;;11.35;78.04;96874.94;5070661;28;20294;-75
2021/10/16 11:27:58;;;;;;;;;;;;;;;11.41;77.61;96867.22;5074592;28;19945;-76
2021/10/16 11:30:24;;;;;;;;;;;;;;;11.44;75.69;96866.78;5074937;28;20302;-75
2021/10/16 11:32:50;;;;;;;;;;;;;;;11.45;76.81;96866.59;5074711;28;20001;-76
2021/10/16 11:35:16;;;;;;;;;;;;;;;11.49;77.92;96869.59;5074554;28;20421;-75
2021/10/16 11:37:47;;;;;;;;;;;;;;;11.54;78.30;96860.03;5074713;28;19948;-76
2021/10/16 11:40:16;;;;;;;;;;;;;;;11.57;76.40;96851.75;5074367;28;19984;-75
2021/10/16 11:42:43;;;;;;;;;;;;;;;11.63;77.09;96844.03;5074500;28;20346;-76
2021/10/16 11:45:11;;;;;;;;;;;;;;;11.68;76.25;96847.63;5074308;28;19945;-75
2021/10/16 11:47:40;;;;;;;;;;;;;;;11.74;77.02;96857.28;5074622;28;20418;-75
2021/10/16 11:50:14;;;;;;;;;;;;;;;11.82;75.72;96855.38;5074749;28;19960;-76
2021/10/16 11:52:41;;;;;;;;;;;;;;;11.91;76.17;96848.88;5074528;28;19977;-76
2021/10/16 11:55:09;;;;;;;;;;;;;;;12.02;76.37;96840.28;5074259;28;19957;-75
2021/10/16 11:57:35;;;;;;;;;;;;;;;12.05;72.37;96837.19;5072888;28;20407;-75
2021/10/16 12:00:17;;;;;;;;;;;;;;;12.04;72.72;96845.34;5073944;28;20014;-76
2021/10/16 12:02:43;;;;;;;;;;;;;;;12.17;74.52;96832.84;5072943;28;19961;-75
2021/10/16 12:05:15;;;;;;;;;;;;;;;12.31;74.80;96827.47;5074102;28;19952;-75
2021/10/16 12:07:41;;;;;;;;;;;;;;;12.33;74.04;96825.41;5074128;28;19956;-76
2021/10/16 12:10:16;;;;;;;;;;;;;;;12.25;73.75;96821.25;5073858;28;19958;-76
2021/10/16 12:12:58;;;;;;;;;;;;;;;12.21;74.40;96824.53;5074133;28;19953;-75
2021/10/16 12:15:54;;;;;;;;;;;;;;;12.19;71.79;96817.66;5058690;28;19956;-76
2021/10/16 12:18:23;;;;;;;;;;;;;;;12.09;72.11;96812.09;5069267;28;19947;-76
2021/10/16 12:20:51;;;;;;;;;;;;;;;12.04;72.95;96809.31;5073542;28;19977;-76
2021/10/16 12:23:17;;;;;;;;;;;;;;;12.12;74.32;96809.03;5074240;28;19954;-75
2021/10/16 12:26:01;;;;;;;;;;;;;;;12.19;72.09;96796.63;5073806;28;19950;-76
2021/10/16 12:28:27;;;;;;;;;;;;;;;12.29;73.49;96803.22;5073784;28;20317;-76
2021/10/16 12:30:57;;;;;;;;;;;;;;;12.44;72.67;96795.72;5073247;28;19960;-75
2021/10/16 12:33:23;;;;;;;;;;;;;;;12.57;73.54;96795.56;5073558;28;19946;-75
2021/10/16 12:35:56;;;;;;;;;;;;;;;12.63;73.13;96796.50;5073489;28;19959;-76
2021/10/16 12:38:21;;;;;;;;;;;;;;;12.58;71.56;96783.22;5073512;28;19959;-75
2021/10/16 12:40:47;;;;;;;;;;;;;;;12.58;72.64;96783.22;5073652;28;20016;-76
2021/10/16 12:43:27;;;;;;;;;;;;;;;12.61;73.40;96798.56;5073377;28;19963;-75
2021/10/16 12:45:53;;;;;;;;;;;;;;;12.60;73.17;96794.34;5073534;28;19982;-76
2021/10/16 12:48:35;;;;;;;;;;;;;;;12.53;71.83;96788.34;5073855;28;19965;-75
2021/10/16 12:51:02;;;;;;;;;;;;;;;12.50;72.84;96797.47;5073321;28;19971;-75
2021/10/16 12:53:47;;;;;;;;;;;;;;;12.59;73.76;96788.25;5073499;28;19981;-75
2021/10/16 12:56:15;;;;;;;;;;;;;;;12.74;73.42;96789.69;5072992;28;20289;-75
2021/10/16 12:58:41;;;;;;;;;;;;;;;12.84;70.11;96770.75;5073434;28;20380;-75
2021/10/16 13:01:07;;;;;;;;;;;;;;;12.93;72.02;96785.19;5073262;28;19982;-75
2021/10/16 13:03:33;;;;;;;;;;;;;;;13.06;71.33;96784.19;5073466;28;20010;-75